< < Back
Terminal Aerodrome Forecast


Current Version              Previous Versions:   1  2  3  4  5  6  7  8  9  

Terminal Aerodrome Forecast

019
FTUS42 KFFC 202156 AAB
TAFATL
TAF AMD
KATL 202156Z 2022/2124 30009KT P6SM SCT250
     FM210000 33005KT P6SM FEW250
     FM211700 03005KT P6SM FEW250=

Latest METAR

943
SAUS70 KWBC 210200 RRA
MTRATL
METAR KATL 210152Z 32006KT 10SM BKN250 09/02 A3023 RMK AO2 SLP241
T00940017


USA.gov is the U.S. government's official web portal to all federal, state and local government web resources and services.